Time;durP1;ratioP1;P1;durP2;ratioP2;P2;SDS_P1;SDS_P2;PMS_P1;PMS_P2;Temp;Humidity;BMP_temperature;BMP_pressure;BME280_temperature;BME280_humidity;BME280_pressure;Samples;Min_cycle;Max_cycle;Signal;HPM_P1;HPM_P2
2023/03/20 00:00:50;;;;;;;243.90;120.15;;;9.20;99.90;;;;;;5074222;28;20390;-77
2023/03/20 00:03:17;;;;;;;233.55;113.88;;;9.20;99.90;;;;;;5074324;28;20024;-77
2023/03/20 00:05:43;;;;;;;230.00;115.55;;;9.10;99.90;;;;;;5074167;28;20029;-77
2023/03/20 00:08:09;;;;;;;208.48;106.53;;;8.90;99.90;;;;;;5074098;28;20032;-77
2023/03/20 00:10:44;;;;;;;290.77;127.50;;;8.80;99.90;;;;;;5073883;28;20478;-77
2023/03/20 00:13:23;;;;;;;244.88;117.30;;;8.70;99.90;;;;;;5073988;28;20436;-77
2023/03/20 00:15:49;;;;;;;220.32;108.72;;;8.60;99.90;;;;;;5074105;28;20036;-77
2023/03/20 00:18:18;;;;;;;220.40;107.78;;;8.60;99.90;;;;;;5073986;28;20028;-77
2023/03/20 00:20:50;;;;;;;189.13;99.15;;;8.50;99.90;;;;;;5074016;28;20032;-77
2023/03/20 00:23:16;;;;;;;182.55;94.20;;;8.40;99.90;;;;;;5074114;28;20457;-77
2023/03/20 00:25:46;;;;;;;176.82;91.85;;;8.30;99.90;;;;;;5074021;28;20028;-77
2023/03/20 00:28:41;;;;;;;188.50;95.13;;;8.20;99.90;;;;;;5074208;28;20096;-77
2023/03/20 00:31:17;;;;;;;184.65;95.82;;;8.10;99.90;;;;;;5073850;28;20036;-77
2023/03/20 00:33:44;;;;;;;185.25;97.50;;;8.10;99.90;;;;;;5055827;28;20040;-77
2023/03/20 00:36:10;;;;;;;206.07;104.32;;;8.10;99.90;;;;;;5094006;28;20131;-77
2023/03/20 00:38:37;;;;;;;193.23;101.05;;;8.20;99.90;;;;;;5094173;28;20067;-77
2023/03/20 00:41:22;;;;;;;170.27;91.10;;;8.20;99.90;;;;;;5094031;28;20032;-77
2023/03/20 00:43:52;;;;;;;172.57;89.75;;;8.20;99.90;;;;;;5094039;28;20051;-77
2023/03/20 00:46:18;;;;;;;172.93;89.65;;;8.20;99.90;;;;;;5111912;28;20035;-77
2023/03/20 00:48:45;;;;;;;176.93;88.68;;;8.00;99.90;;;;;;5097728;28;20398;-78
2023/03/20 00:51:11;;;;;;;203.07;99.40;;;8.00;99.90;;;;;;5097767;28;20446;-78
2023/03/20 00:53:37;;;;;;;227.68;107.88;;;8.20;99.90;;;;;;5097608;28;20051;-77
2023/03/20 00:56:04;;;;;;;209.32;102.85;;;8.20;99.90;;;;;;5079420;28;20071;-77
2023/03/20 00:58:32;;;;;;;201.48;97.63;;;8.20;99.90;;;;;;5097459;28;20035;-77
2023/03/20 01:00:58;;;;;;;200.88;99.45;;;8.20;99.90;;;;;;5097612;28;20393;-77
2023/03/20 01:03:26;;;;;;;193.35;95.28;;;8.30;99.90;;;;;;5079307;28;20040;-77
2023/03/20 01:05:52;;;;;;;217.05;100.75;;;8.40;99.90;;;;;;5079198;28;20045;-77
2023/03/20 01:08:21;;;;;;;200.57;95.97;;;8.30;99.90;;;;;;5078980;28;20032;-77
2023/03/20 01:10:51;;;;;;;195.25;96.15;;;8.30;99.90;;;;;;5097633;28;20381;-77
2023/03/20 01:13:26;;;;;;;195.07;95.55;;;8.10;99.90;;;;;;5097330;28;20078;-76
2023/03/20 01:15:54;;;;;;;194.48;98.22;;;8.10;99.90;;;;;;5097164;28;20078;-77
2023/03/20 01:18:22;;;;;;;194.52;97.82;;;8.00;99.90;;;;;;5097054;28;20092;-77
2023/03/20 01:20:49;;;;;;;182.65;89.43;;;8.00;99.90;;;;;;5097132;28;20188;-76
2023/03/20 01:23:15;;;;;;;183.38;92.15;;;7.90;99.90;;;;;;5095836;28;20082;-77
2023/03/20 01:25:41;;;;;;;175.70;90.10;;;7.80;99.90;;;;;;5096869;28;20035;-76
2023/03/20 01:28:15;;;;;;;173.00;85.32;;;7.80;99.90;;;;;;5096951;28;20032;-76
2023/03/20 01:30:41;;;;;;;175.50;86.82;;;7.80;99.90;;;;;;5078677;28;20036;-77
2023/03/20 01:33:18;;;;;;;174.65;87.30;;;7.90;99.90;;;;;;5078558;28;20497;-78
2023/03/20 01:35:49;;;;;;;177.85;87.80;;;7.90;99.90;;;;;;5061409;28;20567;-77
2023/03/20 01:38:24;;;;;;;171.25;86.65;;;7.90;99.90;;;;;;5058513;28;20081;-77
2023/03/20 01:40:57;;;;;;;169.52;87.47;;;7.90;99.90;;;;;;5058578;28;20478;-77
2023/03/20 01:43:27;;;;;;;165.48;85.20;;;7.80;99.90;;;;;;5058391;28;20215;-77
2023/03/20 01:46:12;;;;;;;150.18;77.68;;;7.80;99.90;;;;;;5076329;28;20025;-77
2023/03/20 01:48:51;;;;;;;159.90;77.40;;;7.70;99.90;;;;;;5075072;28;20055;-77
2023/03/20 01:51:20;;;;;;;150.57;75.57;;;7.60;99.90;;;;;;5058292;28;20043;-77
2023/03/20 01:53:53;;;;;;;144.43;75.00;;;7.60;99.90;;;;;;5058184;28;20453;-77
2023/03/20 01:56:20;;;;;;;145.57;74.85;;;7.50;99.90;;;;;;5075887;28;20032;-77
2023/03/20 01:58:58;;;;;;;147.40;73.07;;;7.50;99.90;;;;;;5057527;28;20025;-78
2023/03/20 02:01:26;;;;;;;157.00;78.95;;;7.60;99.90;;;;;;5058178;28;20033;-77
2023/03/20 02:03:53;;;;;;;173.75;87.68;;;7.60;99.90;;;;;;5058002;28;20112;-78
2023/03/20 02:06:32;;;;;;;155.45;78.88;;;7.50;99.90;;;;;;5057841;28;20036;-77
2023/03/20 02:09:21;;;;;;;148.10;72.15;;;7.60;99.90;;;;;;5064865;28;20041;-77
2023/03/20 02:11:48;;;;;;;147.82;73.63;;;7.50;99.90;;;;;;5058006;28;20030;-77
2023/03/20 02:14:18;;;;;;;147.23;70.78;;;7.50;99.90;;;;;;5057798;28;20549;-77
2023/03/20 02:16:55;;;;;;;137.52;69.55;;;7.50;99.90;;;;;;5057702;28;20029;-78
2023/03/20 02:20:08;;;;;;;146.18;72.05;;;7.60;99.90;;;;;;5074897;28;20050;-78
2023/03/20 02:23:09;;;;;;;145.23;74.78;;;7.70;99.90;;;;;;5057880;28;20604;-77
2023/03/20 02:26:16;;;;;;;144.70;72.05;;;7.80;99.90;;;;;;5057571;28;20083;-78
2023/03/20 02:29:21;;;;;;;130.20;65.47;;;7.80;99.90;;;;;;5075535;28;20086;-78
2023/03/20 02:32:02;;;;;;;134.57;67.40;;;7.80;99.90;;;;;;5057423;28;20032;-78
2023/03/20 02:34:49;;;;;;;124.15;63.58;;;7.70;99.90;;;;;;5063219;28;20048;-77
2023/03/20 02:37:37;;;;;;;124.72;64.68;;;7.60;99.90;;;;;;5077391;28;20596;-77
2023/03/20 02:40:28;;;;;;;120.95;61.95;;;7.60;99.90;;;;;;5077424;28;20020;-78
2023/03/20 02:43:11;;;;;;;127.75;63.80;;;7.60;99.90;;;;;;5095715;28;20054;-77
2023/03/20 02:46:23;;;;;;;128.85;65.55;;;7.50;99.90;;;;;;5077329;28;20506;-77
2023/03/20 02:49:39;;;;;;;114.22;60.47;;;7.50;99.90;;;;;;5016204;28;20025;-78
2023/03/20 02:52:16;;;;;;;122.38;60.83;;;7.50;99.90;;;;;;5029380;28;20480;-77
2023/03/20 02:55:06;;;;;;;122.45;63.22;;;7.60;99.90;;;;;;5012823;28;20037;-78
2023/03/20 02:57:41;;;;;;;147.57;74.47;;;7.50;99.90;;;;;;5029352;28;20029;-77
2023/03/20 03:00:17;;;;;;;155.95;77.72;;;7.50;99.90;;;;;;4996494;28;20045;-78
2023/03/20 03:02:50;;;;;;;149.02;73.50;;;7.60;99.90;;;;;;5029142;28;20121;-77
2023/03/20 03:05:24;;;;;;;137.65;74.03;;;7.50;99.90;;;;;;5012957;28;20100;-78
2023/03/20 03:07:54;;;;;;;146.90;72.53;;;7.40;99.90;;;;;;5029032;28;20036;-78
2023/03/20 03:10:27;;;;;;;;;;;7.30;99.90;;;;;;4996815;28;20034;-78
2023/03/20 03:12:56;;;;;;;143.15;70.07;;;7.40;99.90;;;;;;5012732;28;19914;-77
2023/03/20 03:15:31;;;;;;;142.15;72.28;;;7.50;99.90;;;;;;5029136;28;20539;-78
2023/03/20 03:17:59;;;;;;;144.65;70.03;;;7.40;99.90;;;;;;5029095;28;20029;-78
2023/03/20 03:20:31;;;;;;;135.50;66.63;;;7.30;99.90;;;;;;5012497;28;20045;-77
2023/03/20 03:22:58;;;;;;;134.00;68.55;;;7.20;99.90;;;;;;4996104;28;20022;-78
2023/03/20 03:25:29;;;;;;;134.23;67.25;;;7.20;99.90;;;;;;5057013;28;20032;-78
2023/03/20 03:28:20;;;;;;;131.88;65.85;;;7.20;99.90;;;;;;5076614;28;20489;-77
2023/03/20 03:30:46;;;;;;;122.50;63.30;;;7.10;99.90;;;;;;5076465;28;20122;-78
2023/03/20 03:33:29;;;;;;;131.70;64.85;;;7.20;99.90;;;;;;5094736;28;20052;-77
2023/03/20 03:36:09;;;;;;;132.10;65.80;;;7.20;99.90;;;;;;5076095;28;20139;-78
2023/03/20 03:38:57;;;;;;;120.20;64.13;;;7.20;99.90;;;;;;5074804;28;20028;-78
2023/03/20 03:41:42;;;;;;;129.55;63.65;;;7.20;99.90;;;;;;5074360;28;20024;-78
2023/03/20 03:44:31;;;;;;;121.85;64.20;;;7.20;99.90;;;;;;5056437;28;20032;-78
2023/03/20 03:47:01;;;;;;;115.35;58.67;;;7.10;99.90;;;;;;5062842;28;20048;-78
2023/03/20 03:49:32;;;;;;;125.72;62.63;;;7.10;99.90;;;;;;5056377;28;20120;-79
2023/03/20 03:52:04;;;;;;;136.90;67.60;;;7.10;99.90;;;;;;5056348;28;20037;-78
2023/03/20 03:54:52;;;;;;;157.23;70.88;;;7.00;99.90;;;;;;5056308;28;20085;-78
2023/03/20 03:57:55;;;;;;;203.03;87.43;;;7.00;99.90;;;;;;5074472;28;20064;-78
2023/03/20 04:00:26;;;;;;;262.85;104.57;;;6.90;99.90;;;;;;5056149;28;20354;-78
2023/03/20 04:02:57;;;;;;;257.83;105.95;;;6.90;99.90;;;;;;5074295;28;20028;-77
2023/03/20 04:05:30;;;;;;;251.88;103.72;;;6.90;99.90;;;;;;5056150;28;20058;-78
2023/03/20 04:07:58;;;;;;;203.10;90.97;;;6.80;99.90;;;;;;5074030;28;20510;-78
2023/03/20 04:10:25;;;;;;;227.75;92.10;;;6.80;99.90;;;;;;5074072;28;20028;-78
2023/03/20 04:12:51;;;;;;;222.30;93.03;;;6.80;99.90;;;;;;5073988;28;20025;-78
2023/03/20 04:15:17;;;;;;;235.07;98.05;;;6.80;99.90;;;;;;5056078;28;20103;-78
2023/03/20 04:17:43;;;;;;;188.50;83.35;;;6.70;99.90;;;;;;5073901;28;20032;-78
2023/03/20 04:20:12;;;;;;;189.30;81.28;;;6.70;99.90;;;;;;5056392;28;20024;-79
2023/03/20 04:22:38;;;;;;;196.98;86.15;;;6.70;99.90;;;;;;5077677;28;20036;-78
2023/03/20 04:25:08;;;;;;;208.93;88.15;;;6.70;99.90;;;;;;5059841;28;20040;-78
2023/03/20 04:27:35;;;;;;;225.98;96.13;;;6.60;99.90;;;;;;5059754;28;20058;-78
2023/03/20 04:30:09;;;;;;;208.98;88.25;;;6.60;99.90;;;;;;5059893;28;20103;-78
2023/03/20 04:32:58;;;;;;;206.40;88.30;;;6.60;99.90;;;;;;5067021;28;20040;-78
2023/03/20 04:35:42;;;;;;;200.13;87.07;;;6.60;99.90;;;;;;5075810;28;20055;-78
2023/03/20 04:38:13;;;;;;;194.88;85.13;;;6.60;99.90;;;;;;5079685;28;20119;-78
2023/03/20 04:40:39;;;;;;;165.73;73.72;;;6.50;99.90;;;;;;5079666;28;20343;-78
2023/03/20 04:43:05;;;;;;;150.75;69.35;;;6.50;99.90;;;;;;5079527;28;20025;-78
2023/03/20 04:45:31;;;;;;;165.30;71.70;;;6.40;99.90;;;;;;5079750;28;20047;-78
2023/03/20 04:47:58;;;;;;;154.18;72.00;;;6.40;99.90;;;;;;5079485;28;20049;-78
2023/03/20 04:50:24;;;;;;;150.80;67.18;;;6.40;99.90;;;;;;5079478;28;20492;-78
2023/03/20 04:52:51;;;;;;;145.05;67.00;;;6.30;99.90;;;;;;5079384;28;20024;-78
2023/03/20 04:55:17;;;;;;;125.45;59.72;;;6.40;99.90;;;;;;5097428;28;20035;-78
2023/03/20 04:57:44;;;;;;;127.53;60.35;;;6.40;99.90;;;;;;5079322;28;20032;-78
2023/03/20 05:00:11;;;;;;;140.55;63.03;;;6.50;99.90;;;;;;5079240;28;20120;-78
2023/03/20 05:02:37;;;;;;;126.80;60.28;;;6.50;99.90;;;;;;5079193;28;20035;-78
2023/03/20 05:05:04;;;;;;;159.35;73.40;;;6.40;99.90;;;;;;5097483;28;20028;-78
2023/03/20 05:07:33;;;;;;;198.20;85.57;;;6.40;99.90;;;;;;5079015;28;20035;-78
2023/03/20 05:10:04;;;;;;;220.38;95.05;;;6.40;99.90;;;;;;5079155;28;20327;-78
2023/03/20 05:12:35;;;;;;;146.35;66.82;;;6.30;99.90;;;;;;5096061;28;20031;-78
2023/03/20 05:15:22;;;;;;;143.50;65.45;;;6.30;99.90;;;;;;5096549;28;20051;-78
2023/03/20 05:17:48;;;;;;;128.50;58.55;;;6.40;99.90;;;;;;5097133;28;20024;-78
2023/03/20 05:20:48;;;;;;;106.25;53.55;;;6.40;99.90;;;;;;5073768;28;20035;-78
2023/03/20 05:23:49;;;;;;;127.85;59.28;;;6.40;99.90;;;;;;5014707;28;20029;-78
2023/03/20 05:26:54;;;;;;;128.40;59.85;;;6.40;99.90;;;;;;5014654;28;20038;-78
2023/03/20 05:29:47;;;;;;;164.20;79.50;;;6.40;99.90;;;;;;4998099;28;20034;-79
2023/03/20 05:32:25;;;;;;;147.35;70.13;;;6.50;99.90;;;;;;4996785;28;20117;-77
2023/03/20 05:35:14;;;;;;;150.85;69.10;;;6.50;99.90;;;;;;5006280;28;20049;-77
2023/03/20 05:37:46;;;;;;;146.60;68.47;;;6.60;99.90;;;;;;5014284;28;20404;-76
2023/03/20 05:40:33;;;;;;;159.75;67.93;;;6.70;99.90;;;;;;5014379;28;20483;-79
2023/03/20 05:43:24;;;;;;;161.10;67.03;;;6.80;99.90;;;;;;5014066;28;20037;-80
2023/03/20 05:46:22;;;;;;;148.43;67.10;;;6.90;99.90;;;;;;4971708;28;20041;-79
2023/03/20 05:49:11;;;;;;;135.10;61.63;;;7.00;99.90;;;;;;5003908;28;20034;-79
2023/03/20 05:51:55;;;;;;;161.18;71.95;;;7.20;99.90;;;;;;5014061;28;20045;-80
2023/03/20 05:54:29;;;;;;;152.80;70.20;;;7.40;99.90;;;;;;5013761;28;20045;-79
2023/03/20 05:57:14;;;;;;;140.55;64.30;;;7.50;99.90;;;;;;5026967;28;20041;-79
2023/03/20 05:59:52;;;;;;;145.73;70.22;;;7.70;99.90;;;;;;5056299;28;20032;-80
2023/03/20 06:02:44;;;;;;;131.18;68.28;;;7.90;99.90;;;;;;5056114;28;20029;-80
2023/03/20 06:05:34;;;;;;;152.57;69.78;;;8.00;99.90;;;;;;5057358;28;20029;-80
2023/03/20 06:08:01;;;;;;;162.30;73.80;;;8.20;99.90;;;;;;5071325;28;20025;-80
2023/03/20 06:10:28;;;;;;;143.70;71.40;;;8.40;99.90;;;;;;5071308;28;20363;-80
2023/03/20 06:12:59;;;;;;;135.00;64.97;;;8.60;99.90;;;;;;5037943;28;20035;-80
2023/03/20 06:15:27;;;;;;;144.00;67.53;;;8.80;99.90;;;;;;5037607;28;20564;-80
2023/03/20 06:18:01;;;;;;;145.00;66.15;;;9.00;99.90;;;;;;5071201;28;20116;-81
2023/03/20 06:20:27;;;;;;;150.15;65.25;;;9.20;99.90;;;;;;5069815;28;20028;-80
2023/03/20 06:22:53;;;;;;;141.05;65.03;;;9.50;99.90;;;;;;5084758;28;20021;-80
2023/03/20 06:25:19;;;;;;;131.43;67.80;;;9.70;99.90;;;;;;5057821;28;20033;-80
2023/03/20 06:27:46;;;;;;;130.02;65.75;;;10.00;99.90;;;;;;5058986;28;20031;-80
2023/03/20 06:30:14;;;;;;;121.00;64.45;;;10.30;99.90;;;;;;5073474;28;20437;-80
2023/03/20 06:32:41;;;;;;;118.40;63.13;;;10.50;99.90;;;;;;5083382;28;20028;-80
2023/03/20 06:35:10;;;;;;;125.03;63.85;;;10.80;99.90;;;;;;5067576;28;20075;-80
2023/03/20 06:37:39;;;;;;;132.18;68.60;;;11.20;99.90;;;;;;5073432;28;20639;-81
2023/03/20 06:40:10;;;;;;;129.63;67.43;;;11.40;99.90;;;;;;5087026;28;20028;-81
2023/03/20 06:42:37;;;;;;;154.13;77.00;;;11.60;99.90;;;;;;5048295;28;20025;-80
2023/03/20 06:45:05;;;;;;;142.02;75.43;;;11.90;99.90;;;;;;5051349;28;20037;-80
2023/03/20 06:47:49;;;;;;;145.20;80.47;;;12.20;99.90;;;;;;5045951;28;20041;-80
2023/03/20 06:50:16;;;;;;;132.30;78.75;;;12.40;99.90;;;;;;5071422;28;20114;-82
2023/03/20 06:52:43;;;;;;;143.15;77.45;;;12.30;99.90;;;;;;5071756;28;20028;-82
2023/03/20 06:55:28;;;;;;;140.65;79.38;;;12.60;99.90;;;;;;5069885;28;20043;-81
2023/03/20 06:57:54;;;;;;;145.45;79.65;;;12.80;99.90;;;;;;5079031;28;20033;-80
2023/03/20 07:00:21;;;;;;;159.20;83.35;;;13.30;99.90;;;;;;5052656;28;20028;-80
2023/03/20 07:02:48;;;;;;;164.65;89.15;;;13.40;99.90;;;;;;5061217;28;20032;-80
2023/03/20 07:05:15;;;;;;;155.27;86.10;;;13.60;99.90;;;;;;5058567;28;20040;-81
2023/03/20 07:07:41;;;;;;;149.15;87.53;;;13.80;99.90;;;;;;5065248;28;20030;-83
2023/03/20 07:10:08;;;;;;;164.88;92.00;;;13.90;99.90;;;;;;5070671;28;20033;-83
2023/03/20 07:12:40;;;;;;;163.82;90.18;;;14.00;99.90;;;;;;5069783;28;20040;-84
2023/03/20 07:15:07;;;;;;;166.73;90.05;;;14.10;99.90;;;;;;5089944;28;20034;-83
2023/03/20 07:17:33;;;;;;;154.30;88.47;;;14.50;99.90;;;;;;5055696;28;20390;-83
2023/03/20 07:20:00;;;;;;;159.38;87.20;;;14.80;99.90;;;;;;5063087;28;20024;-83
2023/03/20 07:22:28;;;;;;;178.80;91.82;;;14.90;99.90;;;;;;5053253;28;20032;-83
2023/03/20 07:25:10;;;;;;;167.48;86.65;;;15.00;99.90;;;;;;5071232;28;20297;-82
2023/03/20 07:27:36;;;;;;;163.88;87.85;;;15.40;99.90;;;;;;5041007;28;20551;-82
2023/03/20 07:30:04;;;;;;;166.60;86.25;;;15.60;99.90;;;;;;5072269;28;20035;-82
2023/03/20 07:32:30;;;;;;;168.68;81.35;;;15.80;99.90;;;;;;5070045;28;20175;-81
2023/03/20 07:35:03;;;;;;;150.68;83.40;;;16.20;99.90;;;;;;5054002;28;20045;-81
2023/03/20 07:37:29;;;;;;;129.63;75.20;;;16.30;99.90;;;;;;5048763;28;20171;-81
2023/03/20 07:39:59;;;;;;;133.70;76.25;;;16.40;99.90;;;;;;5082857;28;20024;-82
2023/03/20 07:42:34;;;;;;;138.75;79.60;;;16.40;99.90;;;;;;5058969;28;20032;-81
2023/03/20 07:45:13;;;;;;;131.20;76.97;;;16.60;99.90;;;;;;5053982;28;20029;-82
2023/03/20 07:47:47;;;;;;;139.93;75.78;;;16.50;99.90;;;;;;5050807;28;20552;-81
2023/03/20 07:50:14;;;;;;;119.88;71.00;;;16.50;99.90;;;;;;5094277;28;20107;-81
2023/03/20 07:52:48;;;;;;;127.63;67.50;;;16.30;99.90;;;;;;5084311;28;20421;-81
2023/03/20 07:55:15;;;;;;;116.32;63.58;;;16.20;99.90;;;;;;5073776;28;20470;-81
2023/03/20 07:57:42;;;;;;;103.18;60.22;;;16.50;99.90;;;;;;5079470;28;20107;-84
2023/03/20 08:00:09;;;;;;;110.15;58.53;;;16.60;99.90;;;;;;5077794;28;20027;-79
2023/03/20 08:02:38;;;;;;;88.97;53.28;;;16.80;99.90;;;;;;5077971;28;20394;-80
2023/03/20 08:05:05;;;;;;;96.40;55.33;;;17.00;99.90;;;;;;5076261;28;20099;-80
2023/03/20 08:07:30;;;;;;;110.55;59.83;;;17.00;99.90;;;;;;5075623;28;20047;-79
2023/03/20 08:09:56;;;;;;;95.43;55.38;;;17.20;99.90;;;;;;5077109;28;20068;-80
2023/03/20 08:12:22;;;;;;;92.43;54.88;;;17.30;99.90;;;;;;5075910;28;20025;-80
2023/03/20 08:14:48;;;;;;;110.00;58.75;;;17.30;99.90;;;;;;5081988;28;20504;-80
2023/03/20 08:17:14;;;;;;;88.13;50.15;;;17.10;99.90;;;;;;5072968;28;20024;-80
2023/03/20 08:19:40;;;;;;;90.90;51.33;;;16.90;99.90;;;;;;5056690;28;20028;-80
2023/03/20 08:22:06;;;;;;;94.70;56.00;;;17.10;99.90;;;;;;5055917;28;20025;-79
2023/03/20 08:24:32;;;;;;;106.50;55.65;;;17.30;99.90;;;;;;5063927;28;20415;-78
2023/03/20 08:26:58;;;;;;;114.30;58.15;;;17.60;99.90;;;;;;5075304;28;20036;-79
2023/03/20 08:29:25;;;;;;;94.00;50.90;;;17.70;99.90;;;;;;5075811;28;20039;-79
2023/03/20 08:31:51;;;;;;;93.28;53.88;;;18.10;99.90;;;;;;5085660;28;20035;-79
2023/03/20 08:34:17;;;;;;;103.53;53.60;;;18.10;99.90;;;;;;5075088;28;20489;-79
2023/03/20 08:36:45;;;;;;;89.22;48.58;;;18.20;99.90;;;;;;5076078;28;20028;-79
2023/03/20 08:39:11;;;;;;;90.53;49.95;;;18.40;99.90;;;;;;5063374;28;20723;-79
2023/03/20 08:41:42;;;;;;;103.22;51.15;;;18.40;99.90;;;;;;5082426;28;20115;-79
2023/03/20 08:44:08;;;;;;;85.53;46.95;;;18.50;99.90;;;;;;5081192;28;20020;-80
2023/03/20 08:46:34;;;;;;;90.93;48.85;;;18.80;99.90;;;;;;5084413;28;20089;-80
2023/03/20 08:49:01;;;;;;;80.70;44.65;;;19.10;99.90;;;;;;5079611;28;20031;-79
2023/03/20 08:51:27;;;;;;;89.82;45.90;;;19.60;99.90;;;;;;5072736;28;20476;-78
2023/03/20 08:53:53;;;;;;;79.57;42.72;;;19.70;99.90;;;;;;5074598;28;20158;-76
2023/03/20 08:56:19;;;;;;;78.80;41.25;;;20.20;99.90;;;;;;5078047;28;20052;-77
2023/03/20 08:58:45;;;;;;;81.90;42.22;;;20.20;99.90;;;;;;5078644;28;20039;-75
2023/03/20 09:01:11;;;;;;;74.40;41.20;;;20.20;99.90;;;;;;5072983;28;20162;-74
2023/03/20 09:03:37;;;;;;;86.88;44.45;;;20.50;99.90;;;;;;5075556;28;20029;-74
2023/03/20 09:06:08;;;;;;;81.50;42.03;;;20.20;99.90;;;;;;5075689;28;20021;-74
2023/03/20 09:08:35;;;;;;;90.38;44.55;;;20.60;99.90;;;;;;5088385;28;20032;-74
2023/03/20 09:11:01;;;;;;;72.82;39.92;;;20.90;99.90;;;;;;5075378;28;20095;-74
2023/03/20 09:13:27;;;;;;;76.20;39.40;;;21.30;99.90;;;;;;5075128;28;20462;-74
2023/03/20 09:15:54;;;;;;;69.40;38.92;;;21.60;99.90;;;;;;5074525;28;20096;-74
2023/03/20 09:18:21;;;;;;;65.50;36.47;;;21.80;99.90;;;;;;5075331;28;20027;-74
2023/03/20 09:20:48;;;;;;;71.85;38.03;;;22.20;99.90;;;;;;5074533;28;20036;-74
2023/03/20 09:23:14;;;;;;;59.25;35.58;;;22.20;99.90;;;;;;5074893;28;20476;-73
2023/03/20 09:25:40;;;;;;;60.13;33.50;;;22.40;99.90;;;;;;5075057;28;20102;-73
2023/03/20 09:28:06;;;;;;;66.18;33.03;;;22.30;99.90;;;;;;5065475;28;20052;-74
2023/03/20 09:30:32;;;;;;;60.70;31.70;;;22.30;99.90;;;;;;5077120;28;20027;-74
2023/03/20 09:32:58;;;;;;;54.38;28.73;;;22.20;99.90;;;;;;5077350;28;20100;-73
2023/03/20 09:35:24;;;;;;;53.10;27.88;;;22.30;99.90;;;;;;5067383;28;20049;-74
2023/03/20 09:37:51;;;;;;;50.90;29.08;;;21.90;99.90;;;;;;5068969;28;20032;-73
2023/03/20 09:40:35;;;;;;;48.88;26.40;;;22.00;99.90;;;;;;5076891;28;20090;-74
2023/03/20 09:43:14;;;;;;;49.85;27.52;;;21.60;99.90;;;;;;5076816;28;20055;-73
2023/03/20 09:46:07;;;;;;;55.00;26.85;;;21.70;99.90;;;;;;5066072;28;20094;-73
2023/03/20 09:48:51;;;;;;;61.38;28.10;;;21.50;99.90;;;;;;5062308;28;20094;-72
2023/03/20 09:51:35;;;;;;;41.67;21.70;;;22.20;99.90;;;;;;5061898;28;20036;-73
2023/03/20 09:54:17;;;;;;;38.40;20.75;;;22.20;99.90;;;;;;5061725;28;20033;-73
2023/03/20 09:56:44;;;;;;;42.42;21.25;;;22.80;99.90;;;;;;5060659;28;20031;-72
2023/03/20 09:59:14;;;;;;;43.40;22.55;;;23.50;99.90;;;;;;5066120;28;20124;-72
2023/03/20 10:01:47;;;;;;;20.00;13.23;;;23.90;99.90;;;;;;5084089;28;20035;-72
2023/03/20 10:04:13;;;;;;;20.80;12.18;;;24.10;99.90;;;;;;5061598;28;20056;-72
2023/03/20 10:06:39;;;;;;;29.77;16.42;;;24.10;99.90;;;;;;5063216;28;20041;-72
2023/03/20 10:09:21;;;;;;;37.90;15.95;;;24.00;99.90;;;;;;5067866;28;20387;-72
2023/03/20 10:11:50;;;;;;;31.20;17.63;;;23.80;99.90;;;;;;5074957;28;20020;-72
2023/03/20 10:14:33;;;;;;;31.15;18.95;;;23.80;99.90;;;;;;5074707;28;20090;-72
2023/03/20 10:17:20;;;;;;;36.10;18.17;;;24.00;99.90;;;;;;5077577;28;20085;-72
2023/03/20 10:20:01;;;;;;;55.47;21.23;;;23.40;99.90;;;;;;5095178;28;20099;-72
2023/03/20 10:22:41;;;;;;;31.10;17.00;;;24.00;99.90;;;;;;5080416;28;20469;-73
2023/03/20 10:25:21;;;;;;;32.13;18.67;;;24.20;99.90;;;;;;5075304;28;20557;-73
2023/03/20 10:27:56;;;;;;;33.40;18.07;;;23.70;99.90;;;;;;5075281;28;20033;-72
2023/03/20 10:30:36;;;;;;;29.38;16.17;;;23.60;99.90;;;;;;5077888;28;20261;-72
2023/03/20 10:33:25;;;;;;;30.73;17.33;;;24.10;99.90;;;;;;5075217;28;20035;-72
2023/03/20 10:36:21;;;;;;;34.40;17.83;;;24.90;99.90;;;;;;5074438;28;20391;-72
2023/03/20 10:39:20;;;;;;;28.30;15.25;;;24.70;99.90;;;;;;5075234;28;20025;-72
2023/03/20 10:41:55;;;;;;;27.08;16.08;;;24.00;99.90;;;;;;5055281;28;20044;-72
2023/03/20 10:44:37;;;;;;;24.23;13.63;;;24.70;99.90;;;;;;5058515;28;20028;-71
2023/03/20 10:47:06;;;;;;;48.50;18.33;;;25.50;99.90;;;;;;5055134;28;20031;-72
2023/03/20 10:50:13;;;;;;;28.27;17.42;;;26.00;99.90;;;;;;5055028;28;20366;-71
2023/03/20 10:52:41;;;;;;;40.28;18.70;;;26.30;99.90;;;;;;5061804;28;20025;-72
2023/03/20 10:55:17;;;;;;;31.55;15.23;;;25.50;99.90;;;;;;5052918;28;20460;-72
2023/03/20 10:57:56;;;;;;;32.03;16.38;;;25.50;99.90;;;;;;5034660;28;20021;-73
2023/03/20 11:00:25;;;;;;;28.25;15.60;;;25.80;99.90;;;;;;5052061;28;20025;-72
2023/03/20 11:02:51;;;;;;;29.77;15.93;;;25.60;99.90;;;;;;5055637;28;20029;-73
2023/03/20 11:05:29;;;;;;;29.10;17.85;;;25.20;99.90;;;;;;5055609;28;20043;-73
2023/03/20 11:08:12;;;;;;;71.72;42.15;;;24.80;99.90;;;;;;5054624;28;20067;-73
2023/03/20 11:10:40;;;;;;;33.22;20.73;;;25.60;99.90;;;;;;5064387;28;20025;-73
2023/03/20 11:13:25;;;;;;;31.63;17.38;;;25.90;99.90;;;;;;5063886;28;20133;-73
2023/03/20 11:15:52;;;;;;;34.38;16.63;;;26.30;99.90;;;;;;5053834;28;20025;-73
2023/03/20 11:18:18;;;;;;;23.75;14.38;;;26.00;99.90;;;;;;5054674;28;20364;-73
2023/03/20 11:20:56;;;;;;;57.63;19.13;;;25.90;99.90;;;;;;5053328;28;20021;-73
2023/03/20 11:23:32;;;;;;;34.50;14.30;;;25.70;99.90;;;;;;5063611;28;20025;-74
2023/03/20 11:26:11;;;;;;;26.90;14.18;;;26.10;99.90;;;;;;5059020;28;20017;-74
2023/03/20 11:28:50;;;;;;;26.27;14.23;;;25.60;99.90;;;;;;5046704;28;20029;-74
2023/03/20 11:31:19;;;;;;;31.20;14.13;;;25.10;99.90;;;;;;5054338;28;20356;-74
2023/03/20 11:33:51;;;;;;;16.40;11.07;;;24.60;99.90;;;;;;5054282;28;20039;-74
2023/03/20 11:36:36;;;;;;;22.92;11.98;;;24.90;99.90;;;;;;5073051;28;20094;-74
2023/03/20 11:39:30;;;;;;;50.20;16.67;;;24.50;99.90;;;;;;5074527;28;20025;-74
2023/03/20 11:41:59;;;;;;;29.08;14.10;;;24.90;99.90;;;;;;5069996;28;20028;-74
2023/03/20 11:44:28;;;;;;;22.73;12.13;;;25.20;99.90;;;;;;5054964;28;20029;-74
2023/03/20 11:46:55;;;;;;;25.25;12.82;;;25.30;99.90;;;;;;5032880;28;20155;-74
2023/03/20 11:49:24;;;;;;;18.92;11.70;;;25.20;99.90;;;;;;5026248;28;20479;-76
2023/03/20 11:51:51;;;;;;;18.92;11.07;;;24.70;99.90;;;;;;5026714;28;20170;-74
2023/03/20 11:54:23;;;;;;;16.73;9.55;;;24.70;99.90;;;;;;5026138;28;20029;-75
2023/03/20 11:56:55;;;;;;;17.40;9.38;;;25.00;99.90;;;;;;5025052;28;20037;-74
2023/03/20 11:59:23;;;;;;;18.05;10.20;;;25.40;99.90;;;;;;5027530;28;20474;-75
2023/03/20 12:01:52;;;;;;;17.30;8.82;;;25.20;99.90;;;;;;5027019;28;20148;-74
2023/03/20 12:04:18;;;;;;;14.93;8.23;;;25.50;99.90;;;;;;5036585;28;20025;-74
2023/03/20 12:06:50;;;;;;;16.27;8.32;;;25.30;99.90;;;;;;5053503;28;20504;-74
2023/03/20 12:09:22;;;;;;;17.38;9.02;;;25.40;99.90;;;;;;5049201;28;20060;-74
2023/03/20 12:12:01;;;;;;;11.88;7.40;;;25.70;99.90;;;;;;5059999;28;20309;-74
2023/03/20 12:14:45;;;;;;;13.70;6.80;;;26.20;99.90;;;;;;5052174;28;20033;-74
2023/03/20 12:17:28;;;;;;;13.90;7.10;;;25.50;99.90;;;;;;5047647;28;20235;-74
2023/03/20 12:20:00;;;;;;;12.00;6.28;;;25.90;99.90;;;;;;5062829;28;20020;-74
2023/03/20 12:22:35;;;;;;;16.70;7.63;;;25.70;99.90;;;;;;5053662;28;20472;-74
2023/03/20 12:25:25;;;;;;;9.35;5.90;;;24.50;99.90;;;;;;5051023;28;20027;-74
2023/03/20 12:28:16;;;;;;;17.15;7.82;;;24.90;99.90;;;;;;5067626;28;20447;-74
2023/03/20 12:31:10;;;;;;;22.58;6.40;;;25.40;99.90;;;;;;5060124;28;20074;-74
2023/03/20 12:33:49;;;;;;;12.52;5.85;;;24.90;99.90;;;;;;5067846;28;20551;-75
2023/03/20 12:36:20;;;;;;;6.03;4.95;;;24.80;99.90;;;;;;5025496;28;20057;-75
2023/03/20 12:38:46;;;;;;;10.93;5.45;;;25.00;99.90;;;;;;5026997;28;20033;-75
2023/03/20 12:41:21;;;;;;;13.23;5.90;;;24.70;99.90;;;;;;5027541;28;20388;-75
2023/03/20 12:44:31;;;;;;;21.02;7.25;;;24.60;99.90;;;;;;5040977;28;20032;-74
2023/03/20 12:47:12;;;;;;;35.40;10.15;;;24.50;99.90;;;;;;5051223;28;20459;-76
2023/03/20 12:50:12;;;;;;;12.82;5.97;;;24.50;99.90;;;;;;5054943;28;20056;-76
2023/03/20 12:52:45;;;;;;;11.43;5.53;;;24.50;99.90;;;;;;5054889;28;20102;-75
2023/03/20 12:55:25;;;;;;;16.70;6.70;;;24.10;99.90;;;;;;5062457;28;20082;-76
2023/03/20 12:58:19;;;;;;;14.13;6.20;;;24.00;99.90;;;;;;5076577;28;20032;-76
2023/03/20 13:00:53;;;;;;;15.63;6.35;;;23.70;99.90;;;;;;5061428;28;20124;-77